createdAt,value
2018-08-17T00:01:41.747Z,5.83
2018-08-17T00:04:09.043Z,5.90
2018-08-17T00:06:36.428Z,5.50
2018-08-17T00:09:05.336Z,5.73
2018-08-17T00:11:32.661Z,5.30
2018-08-17T00:13:59.982Z,5.90
2018-08-17T00:16:27.344Z,5.70
2018-08-17T00:18:54.690Z,5.90
2018-08-17T00:21:22.015Z,5.43
2018-08-17T00:23:49.366Z,6.73
2018-08-17T00:26:17.703Z,6.37
2018-08-17T00:28:45.063Z,6.73
2018-08-17T00:31:12.422Z,7.70
2018-08-17T00:33:39.785Z,6.80
2018-08-17T00:36:07.077Z,6.83
2018-08-17T00:38:34.415Z,7.37
2018-08-17T00:41:01.771Z,6.67
2018-08-17T00:43:29.189Z,6.00
2018-08-17T00:45:56.544Z,6.40
2018-08-17T00:48:23.890Z,6.40
2018-08-17T00:50:51.177Z,6.90
2018-08-17T00:53:18.550Z,7.20
2018-08-17T00:55:45.932Z,5.43
2018-08-17T00:58:13.285Z,6.03
2018-08-17T01:00:40.617Z,6.53
2018-08-17T01:03:07.914Z,5.90
2018-08-17T01:05:35.237Z,6.20
2018-08-17T01:08:02.522Z,6.13
2018-08-17T01:10:29.840Z,5.87
2018-08-17T01:12:57.191Z,5.50
2018-08-17T01:15:24.864Z,5.77
2018-08-17T01:17:52.231Z,5.77
2018-08-17T01:20:19.513Z,5.30
2018-08-17T01:22:46.912Z,5.40
2018-08-17T01:25:14.235Z,5.53
2018-08-17T01:27:42.163Z,5.50
2018-08-17T01:30:10.336Z,5.70
2018-08-17T01:32:37.947Z,5.90
2018-08-17T01:35:05.869Z,6.90
2018-08-17T01:37:34.185Z,6.53
2018-08-17T01:40:01.515Z,7.03
2018-08-17T01:42:28.886Z,7.53
2018-08-17T01:44:56.209Z,6.70
2018-08-17T01:47:23.551Z,7.40
2018-08-17T01:49:50.841Z,7.80
2018-08-17T01:52:18.230Z,8.50
2018-08-17T01:54:45.553Z,9.50
2018-08-17T01:57:12.903Z,8.07
2018-08-17T01:59:40.236Z,8.20
2018-08-17T02:02:07.609Z,8.73
2018-08-17T02:04:34.925Z,8.30
2018-08-17T02:07:02.286Z,8.20
2018-08-17T02:09:29.667Z,7.17
2018-08-17T02:11:56.977Z,7.80
2018-08-17T02:14:24.345Z,7.83
2018-08-17T02:16:51.633Z,7.37
2018-08-17T02:19:18.991Z,7.63
2018-08-17T02:21:46.682Z,7.00
2018-08-17T02:24:14.545Z,7.60
2018-08-17T02:26:41.873Z,8.20
2018-08-17T02:29:09.199Z,8.07
2018-08-17T02:31:36.544Z,7.50
2018-08-17T02:34:03.927Z,6.73
2018-08-17T02:36:31.260Z,7.57
2018-08-17T02:38:58.718Z,7.50
2018-08-17T02:41:26.034Z,7.43
2018-08-17T02:43:53.340Z,8.00
2018-08-17T02:46:20.928Z,7.77
2018-08-17T02:48:48.248Z,7.70
2018-08-17T02:51:15.553Z,7.33
2018-08-17T02:53:43.195Z,7.60
2018-08-17T02:56:10.497Z,7.80
2018-08-17T02:58:37.777Z,8.00
2018-08-17T03:01:05.094Z,7.03
2018-08-17T03:03:32.412Z,7.77
2018-08-17T03:05:59.714Z,8.30
2018-08-17T03:08:27.037Z,8.10
2018-08-17T03:10:54.315Z,8.43
2018-08-17T03:13:21.644Z,7.40
2018-08-17T03:15:48.945Z,7.80
2018-08-17T03:18:16.926Z,8.27
2018-08-17T03:20:44.254Z,8.00
2018-08-17T03:23:11.606Z,7.67
2018-08-17T03:25:38.951Z,7.40
2018-08-17T03:28:06.587Z,7.93
2018-08-17T03:30:33.895Z,7.97
2018-08-17T03:33:01.253Z,7.37
2018-08-17T03:35:28.582Z,8.30
2018-08-17T03:37:55.936Z,7.30
2018-08-17T03:40:23.294Z,7.70
2018-08-17T03:42:51.256Z,8.03
2018-08-17T03:45:18.532Z,8.20
2018-08-17T03:47:45.864Z,8.27
2018-08-17T03:50:13.222Z,8.07
2018-08-17T03:52:40.572Z,7.90
2018-08-17T03:55:07.888Z,7.80
2018-08-17T03:57:35.272Z,7.40
2018-08-17T04:00:02.613Z,7.97
2018-08-17T04:02:30.090Z,8.10
2018-08-17T04:04:57.523Z,8.23
2018-08-17T04:07:24.861Z,8.03
2018-08-17T04:09:52.164Z,8.13
2018-08-17T04:12:19.524Z,8.57
2018-08-17T04:14:46.860Z,8.30
2018-08-17T04:17:14.201Z,8.37
2018-08-17T04:19:41.543Z,9.30
2018-08-17T04:22:08.870Z,8.80
2018-08-17T04:24:36.369Z,8.80
2018-08-17T04:27:03.671Z,8.33
2018-08-17T04:29:30.979Z,8.57
2018-08-17T04:31:58.315Z,7.93
2018-08-17T04:34:25.679Z,7.50
2018-08-17T04:36:53.012Z,7.23
2018-08-17T04:39:20.320Z,7.10
2018-08-17T04:41:47.651Z,8.20
2018-08-17T04:44:15.005Z,8.87
2018-08-17T04:46:42.336Z,8.73
2018-08-17T04:49:09.717Z,7.97
2018-08-17T04:51:37.055Z,7.23
2018-08-17T04:54:04.366Z,6.80
2018-08-17T04:56:31.691Z,7.27
2018-08-17T04:58:58.987Z,6.07
2018-08-17T05:01:26.288Z,7.37
2018-08-17T05:03:53.653Z,7.80
2018-08-17T05:06:20.994Z,7.40
2018-08-17T05:08:48.383Z,8.47
2018-08-17T05:11:15.680Z,6.80
2018-08-17T05:13:42.985Z,6.60
2018-08-17T05:16:11.530Z,6.63
2018-08-17T05:18:39.003Z,7.53
2018-08-17T05:21:06.340Z,8.20
2018-08-17T05:23:33.656Z,8.60
2018-08-17T05:26:00.927Z,7.77
2018-08-17T05:28:28.427Z,7.60
2018-08-17T05:30:55.768Z,7.63
2018-08-17T05:33:23.078Z,8.40
2018-08-17T05:35:50.437Z,7.87
2018-08-17T05:38:17.711Z,8.70
2018-08-17T05:40:45.099Z,9.83
2018-08-17T05:43:12.408Z,8.20
2018-08-17T05:45:40.395Z,8.73
2018-08-17T05:48:07.935Z,8.23
2018-08-17T05:50:35.248Z,7.77
2018-08-17T05:53:03.569Z,7.77
2018-08-17T05:55:31.028Z,9.40
2018-08-17T05:57:58.880Z,8.70
2018-08-17T06:00:26.219Z,9.20
2018-08-17T06:02:53.665Z,8.43
2018-08-17T06:05:20.970Z,8.10
2018-08-17T06:07:48.297Z,7.27
2018-08-17T06:10:15.721Z,7.30
2018-08-17T06:12:43.009Z,6.70
2018-08-17T06:15:10.743Z,6.93
2018-08-17T06:17:38.104Z,7.83
2018-08-17T06:20:06.352Z,6.97
2018-08-17T06:22:33.706Z,7.07
2018-08-17T06:25:01.094Z,7.60
2018-08-17T06:27:28.587Z,6.80
2018-08-17T06:29:55.951Z,8.00
2018-08-17T06:32:23.295Z,6.33
2018-08-17T06:34:50.763Z,7.37
2018-08-17T06:37:18.259Z,6.00
2018-08-17T06:39:45.543Z,7.00
2018-08-17T06:42:13.511Z,6.30
2018-08-17T06:44:41.480Z,6.83
2018-08-17T06:47:08.878Z,6.53
2018-08-17T06:49:36.204Z,6.60
2018-08-17T06:52:03.616Z,6.83
2018-08-17T06:54:31.337Z,5.87
2018-08-17T06:56:58.655Z,6.40
2018-08-17T06:59:26.003Z,5.30
2018-08-17T07:01:53.313Z,5.83
2018-08-17T07:04:21.201Z,5.50
2018-08-17T07:06:48.498Z,5.30
2018-08-17T07:09:15.872Z,5.57
2018-08-17T07:11:43.098Z,5.00
2018-08-17T07:14:11.682Z,5.80
2018-08-17T07:16:39.887Z,5.50
2018-08-17T07:19:08.078Z,5.67
2018-08-17T07:21:35.758Z,5.50
2018-08-17T07:24:03.093Z,5.20
2018-08-17T07:26:30.442Z,5.87
2018-08-17T07:28:58.161Z,5.40
2018-08-17T07:31:26.234Z,5.43
2018-08-17T07:33:53.734Z,5.80
2018-08-17T07:36:21.132Z,6.07
2018-08-17T07:38:49.356Z,5.40
2018-08-17T07:41:16.717Z,5.17
2018-08-17T07:43:44.034Z,4.80
2018-08-17T07:46:11.569Z,5.10
2018-08-17T07:48:38.966Z,5.43
2018-08-17T07:51:06.275Z,4.80
2018-08-17T07:53:33.599Z,4.73
2018-08-17T07:56:01.841Z,5.33
2018-08-17T07:58:29.148Z,4.90
2018-08-17T08:00:56.462Z,4.93
2018-08-17T08:03:24.118Z,5.27
2018-08-17T08:05:51.434Z,5.57
2018-08-17T08:08:18.764Z,5.00
2018-08-17T08:10:46.454Z,5.77
2018-08-17T08:13:13.738Z,4.77
2018-08-17T08:15:41.136Z,5.77
2018-08-17T08:18:08.512Z,5.13
2018-08-17T08:20:37.064Z,4.17
2018-08-17T08:23:09.936Z,4.80
2018-08-17T08:25:38.016Z,4.70
2018-08-17T08:28:05.351Z,5.00
2018-08-17T08:30:32.704Z,5.17
2018-08-17T08:33:00.009Z,4.93
2018-08-17T08:35:27.324Z,5.60
2018-08-17T08:37:54.654Z,5.33
2018-08-17T08:40:22.068Z,5.07
2018-08-17T08:42:49.457Z,4.80
2018-08-17T08:45:16.777Z,5.53
2018-08-17T08:47:44.095Z,4.20
2018-08-17T08:50:11.485Z,4.80
2018-08-17T08:52:38.818Z,6.50
2018-08-17T08:55:07.176Z,6.10
2018-08-17T08:57:34.474Z,5.10
2018-08-17T09:00:02.589Z,5.53
2018-08-17T09:02:29.874Z,4.80
2018-08-17T09:04:57.205Z,5.60
2018-08-17T09:07:24.540Z,5.10
2018-08-17T09:09:52.739Z,4.67
2018-08-17T09:12:20.058Z,4.47
2018-08-17T09:14:47.364Z,5.07
2018-08-17T09:17:14.764Z,5.00
2018-08-17T09:19:42.085Z,5.33
2018-08-17T09:22:09.709Z,4.60
2018-08-17T09:24:37.447Z,5.40
2018-08-17T09:27:04.913Z,6.17
2018-08-17T09:29:32.276Z,5.50
2018-08-17T09:31:59.615Z,4.80
2018-08-17T09:34:26.922Z,5.20
2018-08-17T09:36:54.263Z,5.50
2018-08-17T09:39:21.850Z,4.67
2018-08-17T09:41:49.241Z,4.63
2018-08-17T09:44:16.543Z,5.07
2018-08-17T09:46:43.888Z,4.30
2018-08-17T09:49:11.268Z,5.33
2018-08-17T09:51:38.761Z,5.50
2018-08-17T09:54:07.133Z,5.50
2018-08-17T09:56:34.462Z,5.23
2018-08-17T09:59:02.026Z,6.73
2018-08-17T10:01:34.748Z,5.07
2018-08-17T10:04:07.359Z,5.57
2018-08-17T10:06:40.413Z,5.03
2018-08-17T10:09:13.396Z,5.30
2018-08-17T10:11:41.111Z,4.87
2018-08-17T10:14:08.437Z,5.40
2018-08-17T10:16:35.744Z,4.60
2018-08-17T10:19:03.096Z,4.87
2018-08-17T10:21:33.791Z,4.60
2018-08-17T10:24:00.994Z,4.30
2018-08-17T10:26:28.726Z,4.83
2018-08-17T10:28:56.883Z,4.90
2018-08-17T10:31:24.583Z,4.23
2018-08-17T10:33:52.011Z,4.60
2018-08-17T10:36:19.295Z,4.13
2018-08-17T10:38:47.268Z,4.97
2018-08-17T10:41:14.613Z,4.60
2018-08-17T10:43:41.977Z,5.47
2018-08-17T10:46:09.463Z,4.73
2018-08-17T10:48:36.804Z,4.67
2018-08-17T10:51:04.136Z,4.53
2018-08-17T10:53:36.798Z,5.20
2018-08-17T10:56:04.232Z,5.70
2018-08-17T10:58:33.466Z,4.60
2018-08-17T11:01:01.326Z,5.10
2018-08-17T11:03:28.662Z,5.37
2018-08-17T11:05:56.004Z,5.10
2018-08-17T11:08:23.361Z,5.10
2018-08-17T11:10:50.699Z,5.30
2018-08-17T11:13:18.073Z,5.50
2018-08-17T11:15:45.426Z,5.27
2018-08-17T11:18:12.728Z,5.33
2018-08-17T11:20:40.071Z,4.70
2018-08-17T11:23:07.452Z,4.90
2018-08-17T11:25:34.823Z,5.50
2018-08-17T11:28:03.809Z,5.83
2018-08-17T11:30:31.168Z,5.40
2018-08-17T11:32:59.458Z,5.80
2018-08-17T11:35:26.817Z,4.83
2018-08-17T11:37:57.104Z,5.60
2018-08-17T11:40:24.408Z,5.27
2018-08-17T11:42:51.733Z,5.00
2018-08-17T11:45:23.301Z,4.83
2018-08-17T11:47:51.049Z,4.40
2018-08-17T11:50:22.661Z,5.53
2018-08-17T11:52:55.455Z,5.67
2018-08-17T11:55:23.426Z,6.63
2018-08-17T11:57:51.680Z,6.20
2018-08-17T12:00:19.065Z,5.70
2018-08-17T12:02:46.764Z,5.90
2018-08-17T12:05:14.109Z,5.67
2018-08-17T12:07:42.368Z,5.27
2018-08-17T12:10:09.772Z,5.70
2018-08-17T12:12:38.355Z,6.00
2018-08-17T12:15:08.456Z,5.77
2018-08-17T12:17:35.936Z,5.93
2018-08-17T12:22:47.142Z,5.87
2018-08-17T12:25:15.928Z,5.67
2018-08-17T15:25:09.388Z,8.10
2018-08-17T15:38:34.156Z,11.63
2018-08-17T15:57:27.607Z,11.93
2018-08-17T15:59:55.071Z,12.20
2018-08-17T16:02:22.426Z,10.73
2018-08-17T16:04:49.858Z,9.67
2018-08-17T16:07:17.086Z,9.07
2018-08-17T16:09:45.362Z,8.20
2018-08-17T16:12:13.160Z,7.40
2018-08-17T16:14:40.591Z,6.63
2018-08-17T16:17:07.965Z,5.57
2018-08-17T16:19:36.117Z,5.63
2018-08-17T16:22:03.882Z,6.63
2018-08-17T16:24:31.199Z,7.40
2018-08-17T16:27:00.148Z,7.23
2018-08-17T16:29:28.485Z,6.97
2018-08-17T16:31:55.844Z,8.20
2018-08-17T16:34:23.193Z,7.40
2018-08-17T16:36:50.552Z,7.70
2018-08-17T16:39:17.960Z,7.77
2018-08-17T16:41:45.409Z,7.13
2018-08-17T16:44:13.366Z,7.03
2018-08-17T16:46:41.552Z,7.80
2018-08-17T16:49:08.872Z,7.67
2018-08-17T16:51:36.731Z,7.47
2018-08-17T16:54:04.228Z,7.37
2018-08-17T16:56:31.603Z,6.23
2018-08-17T16:58:59.014Z,6.13
2018-08-17T17:01:26.303Z,5.80
2018-08-17T17:03:53.642Z,5.87
2018-08-17T17:06:21.015Z,5.23
2018-08-17T17:08:48.368Z,5.00
2018-08-17T17:11:15.805Z,5.30
2018-08-17T17:13:43.181Z,5.60
2018-08-17T17:16:10.517Z,5.70
2018-08-17T17:18:37.946Z,5.53
2018-08-17T17:21:05.328Z,6.07
2018-08-17T17:23:32.821Z,5.73
2018-08-17T17:26:00.232Z,6.23
2018-08-17T17:28:30.296Z,4.97
2018-08-17T17:30:57.890Z,5.17
2018-08-17T17:33:25.205Z,6.30
2018-08-17T17:35:52.603Z,5.77
2018-08-17T17:38:19.924Z,6.10
2018-08-17T17:40:47.250Z,5.90
2018-08-17T17:43:14.606Z,5.60
2018-08-17T17:45:41.986Z,5.47
2018-08-17T17:48:09.353Z,6.13
2018-08-17T17:50:36.848Z,5.20
2018-08-17T17:53:04.868Z,4.90
2018-08-17T17:55:38.322Z,6.53
2018-08-17T17:58:05.904Z,5.07
2018-08-17T18:00:33.212Z,4.43
2018-08-17T18:03:00.622Z,4.30
2018-08-17T18:05:27.958Z,5.20
2018-08-17T18:07:58.923Z,4.50
2018-08-17T18:10:26.322Z,5.27
2018-08-17T18:12:53.759Z,4.67
2018-08-17T18:15:21.276Z,4.30
2018-08-17T18:17:48.682Z,4.70
2018-08-17T18:20:16.040Z,5.53
2018-08-17T18:22:43.626Z,5.37
2018-08-17T18:25:18.803Z,4.50
2018-08-17T18:27:46.910Z,4.67
2018-08-17T18:30:14.310Z,4.60
2018-08-17T18:32:41.775Z,4.83
2018-08-17T18:35:09.269Z,4.73
2018-08-17T18:37:36.830Z,4.83
2018-08-17T18:40:05.084Z,4.93
2018-08-17T18:42:32.435Z,4.97
2018-08-17T18:44:59.827Z,4.97
2018-08-17T18:47:27.183Z,4.43
2018-08-17T18:49:54.646Z,5.30
2018-08-17T18:52:22.282Z,5.60
2018-08-17T18:54:49.688Z,5.60
2018-08-17T18:57:17.522Z,5.67
2018-08-17T18:59:45.156Z,5.50
2018-08-17T19:02:12.596Z,4.90
2018-08-17T19:04:39.955Z,5.50
2018-08-17T19:07:07.392Z,4.90
2018-08-17T19:09:35.013Z,4.97
2018-08-17T19:12:02.888Z,5.67
2018-08-17T19:14:30.215Z,5.03
2018-08-17T19:16:57.546Z,5.40
2018-08-17T19:19:24.978Z,5.30
2018-08-17T19:21:52.315Z,5.87
2018-08-17T19:24:20.255Z,5.70
2018-08-17T19:26:47.713Z,5.60
2018-08-17T19:29:15.193Z,4.80
2018-08-17T19:31:48.911Z,4.73
2018-08-17T19:34:16.975Z,5.47
2018-08-17T19:36:44.500Z,5.20
2018-08-17T19:39:15.101Z,5.70
2018-08-17T19:41:42.621Z,4.90
2018-08-17T19:44:10.069Z,5.90
2018-08-17T19:46:37.413Z,5.50
2018-08-17T19:49:05.699Z,5.50
2018-08-17T19:51:33.121Z,5.00
2018-08-17T19:54:00.871Z,5.10
2018-08-17T19:56:28.483Z,5.43
2018-08-17T19:58:55.893Z,5.33
2018-08-17T20:01:23.248Z,5.13
2018-08-17T20:03:50.860Z,4.70
2018-08-17T20:06:18.192Z,6.20
2018-08-17T20:08:45.592Z,6.63
2018-08-17T20:11:13.594Z,5.60
2018-08-17T20:13:40.915Z,5.60
2018-08-17T20:16:14.059Z,6.00
2018-08-17T20:18:41.442Z,6.80
2018-08-17T20:21:23.010Z,5.30
2018-08-17T20:23:50.691Z,5.17
2018-08-17T20:26:18.430Z,5.50
2018-08-17T20:28:45.587Z,5.20
2018-08-17T20:31:13.527Z,5.63
2018-08-17T20:33:41.041Z,5.73
2018-08-17T20:36:09.102Z,5.13
2018-08-17T20:38:36.479Z,6.07
2018-08-17T20:41:04.224Z,5.57
2018-08-17T20:43:31.682Z,6.17
2018-08-17T20:45:59.246Z,5.87
2018-08-17T20:48:26.691Z,6.30
2018-08-17T20:50:54.217Z,6.03
2018-08-17T20:53:21.627Z,7.03
2018-08-17T20:55:49.156Z,6.77
2018-08-17T20:58:17.037Z,6.20
2018-08-17T21:00:45.100Z,6.70
2018-08-17T21:03:12.658Z,6.50
2018-08-17T21:05:40.344Z,6.23
2018-08-17T21:08:07.903Z,5.80
2018-08-17T21:10:35.682Z,6.13
2018-08-17T21:13:04.437Z,6.70
2018-08-17T21:15:31.967Z,6.40
2018-08-17T21:17:59.446Z,6.17
2018-08-17T21:20:26.805Z,5.57
2018-08-17T21:22:54.314Z,6.00
2018-08-17T21:25:22.117Z,6.33
2018-08-17T21:27:49.833Z,6.80
2018-08-17T21:30:17.250Z,6.90
2018-08-17T21:32:44.658Z,6.60
2018-08-17T21:35:13.033Z,7.30
2018-08-17T21:37:40.475Z,6.80
2018-08-17T21:40:13.082Z,6.53
2018-08-17T21:42:40.593Z,7.00
2018-08-17T21:45:08.499Z,6.10
2018-08-17T21:47:36.078Z,6.60
2018-08-17T21:50:09.036Z,6.20
2018-08-17T21:52:36.475Z,5.80
2018-08-17T21:55:04.016Z,6.10
2018-08-17T21:57:31.867Z,6.40
2018-08-17T21:59:59.424Z,5.90
2018-08-17T22:02:26.775Z,7.60
2018-08-17T22:04:54.577Z,6.90
2018-08-17T22:07:24.098Z,6.60
2018-08-17T22:09:52.414Z,7.10
2018-08-17T22:12:19.765Z,7.13
2018-08-17T22:14:47.478Z,7.97
2018-08-17T22:17:20.749Z,7.60
2018-08-17T22:19:48.281Z,8.50
2018-08-17T22:22:16.127Z,8.77
2018-08-17T22:24:57.081Z,7.67
2018-08-17T22:29:58.987Z,7.90
2018-08-17T22:32:26.685Z,8.17
2018-08-17T22:34:54.253Z,7.17
2018-08-17T22:37:21.631Z,7.20
2018-08-17T22:39:49.015Z,6.77
2018-08-17T22:42:16.876Z,6.73
2018-08-17T22:44:44.228Z,7.10
2018-08-17T22:47:16.158Z,8.60
2018-08-17T22:49:43.715Z,7.30
2018-08-17T22:52:11.351Z,8.17
2018-08-17T22:54:44.128Z,7.57
2018-08-17T22:57:12.005Z,7.60
2018-08-17T22:59:39.390Z,6.80
2018-08-17T23:02:06.998Z,7.10
2018-08-17T23:04:34.460Z,7.47
2018-08-17T23:07:02.333Z,8.30
2018-08-17T23:09:30.275Z,8.30
2018-08-17T23:11:58.073Z,8.00
2018-08-17T23:14:27.649Z,7.30
2018-08-17T23:16:55.310Z,7.70
2018-08-17T23:19:22.792Z,7.37
2018-08-17T23:21:50.590Z,7.90
2018-08-17T23:24:18.310Z,7.67
2018-08-17T23:26:45.596Z,7.50
2018-08-17T23:29:13.015Z,7.30
2018-08-17T23:31:41.642Z,7.20
2018-08-17T23:34:09.085Z,7.77
2018-08-17T23:36:36.576Z,8.17
2018-08-17T23:39:05.948Z,7.87
2018-08-17T23:41:33.408Z,8.27
2018-08-17T23:44:01.193Z,7.40
2018-08-17T23:46:28.671Z,7.50
2018-08-17T23:48:56.022Z,7.20
2018-08-17T23:51:23.469Z,7.20
2018-08-17T23:53:50.838Z,7.50
2018-08-17T23:56:18.299Z,7.50
2018-08-17T23:58:45.870Z,7.87
